Time;durP1;ratioP1;P1;durP2;ratioP2;P2;SDS_P1;SDS_P2;PMS_P1;PMS_P2;Temp;Humidity;BMP_temperature;BMP_pressure;BME280_temperature;BME280_humidity;BME280_pressure;Samples;Min_cycle;Max_cycle;Signal;HPM_P1;HPM_P2
2023/05/03 00:02:05;;;;;;;5.87;1.70;;;;;;;13.45;47.12;95133.97;4972914;28;20421;-72
2023/05/03 00:04:32;;;;;;;1.83;1.40;;;;;;;13.42;47.14;95132.56;4953997;28;20443;-72
2023/05/03 00:06:57;;;;;;;2.88;1.70;;;;;;;13.25;46.94;95109.56;4953763;29;20511;-72
2023/05/03 00:09:23;;;;;;;3.50;1.70;;;;;;;13.42;47.16;95134.38;4953477;29;20506;-72
2023/05/03 00:11:48;;;;;;;3.63;2.00;;;;;;;13.36;47.23;95130.00;4953052;29;20435;-73
2023/05/03 00:14:14;;;;;;;4.53;1.90;;;;;;;13.40;46.59;95132.00;4953084;29;20502;-72
2023/05/03 00:16:39;;;;;;;2.47;1.60;;;;;;;13.55;46.13;95143.00;4953041;28;20426;-72
2023/05/03 00:19:05;;;;;;;3.43;1.80;;;;;;;13.57;46.02;95134.84;4953331;29;20427;-72
2023/05/03 00:21:30;;;;;;;4.60;1.83;;;;;;;13.44;46.03;95132.34;4953213;29;20482;-73
2023/05/03 00:23:56;;;;;;;3.23;1.83;;;;;;;13.37;45.90;95142.19;4953157;28;20493;-72
2023/05/03 00:26:21;;;;;;;2.07;1.80;;;;;;;13.28;46.08;95178.69;4953008;29;20430;-72
2023/05/03 00:28:46;;;;;;;3.08;1.60;;;;;;;13.29;45.93;95138.00;4953588;28;20802;-73
2023/05/03 00:31:12;;;;;;;3.78;1.65;;;;;;;13.20;46.34;95150.72;4953054;29;20445;-73
2023/05/03 00:33:38;;;;;;;4.00;2.13;;;;;;;13.12;46.65;95136.94;4952508;28;20502;-73
2023/05/03 00:36:13;;;;;;;3.47;1.90;;;;;;;13.08;46.83;95136.56;4952604;28;20419;-72
2023/05/03 00:38:40;;;;;;;5.20;1.70;;;;;;;13.01;47.11;95150.88;4952781;29;20576;-72
2023/05/03 00:41:06;;;;;;;4.65;2.05;;;;;;;13.10;46.96;95150.38;4952996;29;20442;-72
2023/05/03 00:43:33;;;;;;;3.17;1.70;;;;;;;13.05;46.77;95165.28;4953144;28;20433;-72
2023/05/03 00:46:00;;;;;;;2.15;1.75;;;;;;;12.85;47.50;95153.06;4952991;28;20454;-72
2023/05/03 00:48:26;;;;;;;3.30;1.80;;;;;;;12.96;47.47;95153.38;4952950;28;20498;-72
2023/05/03 00:50:53;;;;;;;3.28;1.90;;;;;;;12.97;47.11;95157.63;4952229;28;20454;-73
2023/05/03 00:53:20;;;;;;;4.93;1.77;;;;;;;12.72;46.88;95121.47;4952773;28;20431;-73
2023/05/03 00:55:45;;;;;;;6.15;1.80;;;;;;;12.86;46.99;95153.88;4952793;28;20813;-73
2023/05/03 00:58:11;;;;;;;4.22;2.03;;;;;;;12.85;47.06;95147.78;4952312;28;20418;-73
2023/05/03 01:00:36;;;;;;;1.90;1.73;;;;;;;12.83;47.10;95144.53;4952886;28;20483;-73
2023/05/03 01:03:01;;;;;;;1.87;1.60;;;;;;;12.88;46.56;95151.81;4952324;29;20423;-73
2023/05/03 01:05:33;;;;;;;2.87;1.70;;;;;;;12.74;46.62;95142.38;4952349;29;20470;-73
2023/05/03 01:08:10;;;;;;;3.47;1.80;;;;;;;12.61;46.96;95140.69;4952342;29;20535;-73
2023/05/03 01:10:52;;;;;;;3.83;1.70;;;;;;;12.52;47.25;95133.22;4944218;29;20494;-73
2023/05/03 01:13:29;;;;;;;5.05;1.80;;;;;;;12.52;47.13;95120.03;4952316;29;20458;-73
2023/05/03 01:16:05;;;;;;;6.05;1.80;;;;;;;12.32;47.36;95128.91;4952050;29;20410;-73
2023/05/03 01:18:36;;;;;;;4.22;1.88;;;;;;;12.31;47.69;95129.94;4952059;29;20415;-73
2023/05/03 01:21:04;;;;;;;4.65;1.98;;;;;;;12.26;47.96;95116.56;4935532;29;20955;-73
2023/05/03 01:23:36;;;;;;;2.72;2.13;;;;;;;12.13;48.04;95121.13;4951718;29;20429;-73
2023/05/03 01:26:34;;;;;;;4.30;1.80;;;;;;;12.29;47.97;95121.41;4952114;29;20941;-73
2023/05/03 01:28:59;;;;;;;2.85;1.70;;;;;;;12.29;48.16;95108.22;4894926;29;20490;-73
2023/05/03 01:31:30;;;;;;;2.37;1.80;;;;;;;12.20;47.98;95109.50;4951800;29;20447;-73
2023/05/03 01:34:09;;;;;;;2.70;1.73;;;;;;;12.07;48.28;95117.50;4952097;28;20506;-73
2023/05/03 01:36:36;;;;;;;3.38;1.75;;;;;;;12.14;48.64;95106.91;4951827;29;20431;-72
2023/05/03 01:39:13;;;;;;;2.33;1.52;;;;;;;12.22;48.64;95118.00;4951510;29;20419;-73
2023/05/03 01:41:41;;;;;;;3.67;1.85;;;;;;;12.35;48.07;95103.91;4951801;29;21420;-73
2023/05/03 01:44:09;;;;;;;4.38;1.90;;;;;;;12.28;48.37;95108.44;4951134;28;20411;-72
2023/05/03 01:46:41;;;;;;;2.67;2.00;;;;;;;12.35;48.02;95112.66;4951520;29;20411;-73
2023/05/03 01:49:07;;;;;;;2.85;1.73;;;;;;;12.30;48.06;95101.91;4951544;29;20438;-73
2023/05/03 01:51:32;;;;;;;3.60;1.48;;;;;;;12.21;48.25;95095.28;4951873;28;20514;-73
2023/05/03 01:53:58;;;;;;;3.40;1.60;;;;;;;12.25;48.46;95099.13;4951275;28;20574;-73
2023/05/03 01:56:23;;;;;;;4.43;2.00;;;;;;;12.24;48.75;95102.78;4951678;28;20443;-73
2023/05/03 01:58:49;;;;;;;3.60;1.95;;;;;;;12.25;48.61;95093.03;4951622;29;20430;-73
2023/05/03 02:01:14;;;;;;;2.70;2.00;;;;;;;12.13;48.68;95063.88;4951499;29;20422;-73
2023/05/03 02:03:39;;;;;;;3.10;1.70;;;;;;;12.27;48.59;95085.72;4951373;29;20412;-73
2023/05/03 02:06:05;;;;;;;3.58;1.70;;;;;;;12.43;48.20;95080.69;4951943;29;20443;-73
2023/05/03 02:08:30;;;;;;;2.63;1.80;;;;;;;12.42;48.30;95080.91;4951302;29;20857;-73
2023/05/03 02:10:56;;;;;;;4.57;1.90;;;;;;;12.26;48.37;95090.19;4951704;28;20517;-73
2023/05/03 02:13:21;;;;;;;5.87;1.90;;;;;;;12.34;48.64;95060.06;4951518;29;20430;-73
2023/05/03 02:15:47;;;;;;;2.30;1.70;;;;;;;12.37;48.47;95083.38;4951221;29;20427;-73
2023/05/03 02:18:13;;;;;;;3.87;1.93;;;;;;;12.29;48.83;95055.41;4951941;29;20419;-73
2023/05/03 02:20:38;;;;;;;3.78;1.98;;;;;;;12.25;48.83;95056.06;4951279;28;20446;-73
2023/05/03 02:23:04;;;;;;;3.57;1.80;;;;;;;12.15;48.90;95061.84;4951050;29;20888;-73
2023/05/03 02:25:29;;;;;;;3.03;1.80;;;;;;;11.98;49.11;95042.28;4951428;29;20427;-73
2023/05/03 02:27:55;;;;;;;4.78;1.90;;;;;;;11.89;49.40;95040.94;4951537;29;20423;-73
2023/05/03 02:30:20;;;;;;;3.00;2.10;;;;;;;11.93;50.02;95071.97;4951034;28;20412;-73
2023/05/03 02:32:45;;;;;;;5.15;1.80;;;;;;;11.90;49.67;95058.38;4950855;29;21031;-73
2023/05/03 02:35:11;;;;;;;3.17;1.75;;;;;;;11.94;49.84;95065.63;4951548;29;20511;-73
2023/05/03 02:37:36;;;;;;;6.53;1.77;;;;;;;12.07;49.46;95070.03;4951228;28;20415;-73
2023/05/03 02:40:04;;;;;;;3.97;1.90;;;;;;;12.03;49.54;95076.72;4950936;29;20501;-73
2023/05/03 02:42:30;;;;;;;2.72;1.90;;;;;;;12.08;49.56;95076.91;4951010;29;20403;-73
2023/05/03 02:44:55;;;;;;;1.60;1.50;;;;;;;12.01;49.72;95084.06;4956107;28;20174;-73
2023/05/03 02:47:21;;;;;;;3.67;2.33;;;;;;;12.04;49.77;95094.19;4970308;28;20493;-73
2023/05/03 02:49:47;;;;;;;3.03;1.92;;;;;;;12.02;49.72;95089.13;4969990;28;20452;-73
2023/05/03 02:52:12;;;;;;;2.83;1.80;;;;;;;11.95;49.83;95085.72;4953009;28;20807;-73
2023/05/03 02:54:37;;;;;;;5.17;2.20;;;;;;;12.07;49.71;95091.13;4970178;28;20493;-73
2023/05/03 02:57:03;;;;;;;6.67;2.20;;;;;;;12.20;49.30;95079.66;4972905;28;20784;-73
2023/05/03 02:59:28;;;;;;;4.03;2.00;;;;;;;12.11;49.49;95094.94;4974398;28;20444;-73
2023/05/03 03:01:54;;;;;;;4.43;2.00;;;;;;;12.13;49.55;95085.00;4973739;28;20420;-72
2023/05/03 03:04:19;;;;;;;3.00;2.00;;;;;;;12.11;49.81;95081.75;4973697;28;21041;-72
2023/05/03 03:06:45;;;;;;;3.53;1.80;;;;;;;12.14;49.75;95101.63;4973957;28;20804;-72
2023/05/03 03:09:11;;;;;;;3.03;2.10;;;;;;;12.10;49.83;95096.00;4973664;28;20425;-72
2023/05/03 03:11:37;;;;;;;3.58;1.90;;;;;;;12.07;49.82;95088.50;4973527;28;20503;-73
2023/05/03 03:14:02;;;;;;;2.47;1.70;;;;;;;12.00;50.33;95091.19;4974191;28;21269;-72
2023/05/03 03:16:27;;;;;;;4.43;2.10;;;;;;;12.10;49.60;95096.00;4973497;28;20915;-72
2023/05/03 03:18:53;;;;;;;2.90;1.80;;;;;;;11.94;50.02;95083.28;4956214;28;20495;-72
2023/05/03 03:21:18;;;;;;;4.63;2.10;;;;;;;12.04;50.33;95091.56;4945373;29;20439;-72
2023/05/03 03:23:43;;;;;;;9.83;1.90;;;;;;;12.09;50.13;95105.75;4953489;28;20517;-73
2023/05/03 03:26:09;;;;;;;2.60;2.05;;;;;;;12.17;49.81;95104.66;4961777;28;20425;-73
2023/05/03 03:28:34;;;;;;;3.78;2.00;;;;;;;12.12;50.07;95099.19;4973227;28;20844;-73
2023/05/03 03:31:00;;;;;;;4.73;1.90;;;;;;;12.06;49.85;95111.44;4973431;28;20429;-73
2023/05/03 03:33:25;;;;;;;2.93;1.90;;;;;;;11.73;50.46;95087.88;4972980;28;20500;-73
2023/05/03 03:35:50;;;;;;;4.30;1.90;;;;;;;11.81;50.87;95115.84;4957820;28;20431;-73
2023/05/03 03:38:16;;;;;;;4.18;2.22;;;;;;;11.81;50.82;95142.22;4954179;28;20909;-74
2023/05/03 03:40:41;;;;;;;2.60;2.20;;;;;;;11.76;51.21;95126.25;4954639;28;20319;-74
2023/05/03 03:43:06;;;;;;;4.63;2.03;;;;;;;11.75;51.11;95124.63;4953765;29;20786;-73
2023/05/03 03:45:32;;;;;;;3.90;2.00;;;;;;;11.76;50.90;95122.78;4954138;29;20472;-73
2023/05/03 03:47:57;;;;;;;2.80;2.10;;;;;;;11.90;50.77;95124.31;4953756;29;20423;-74
2023/05/03 03:50:24;;;;;;;6.87;2.10;;;;;;;11.83;50.72;95115.66;4953625;28;20430;-73
2023/05/03 03:52:49;;;;;;;2.95;2.00;;;;;;;11.87;50.60;95135.28;4953518;29;20901;-74
2023/05/03 03:55:15;;;;;;;1.60;1.40;;;;;;;11.81;50.79;95118.50;4967059;28;20180;-74
2023/05/03 03:57:40;;;;;;;4.73;2.60;;;;;;;11.78;50.91;95126.81;4972362;28;20412;-74
2023/05/03 04:00:10;;;;;;;3.33;2.05;;;;;;;11.81;50.97;95126.41;4972573;28;20982;-73
2023/05/03 04:02:36;;;;;;;5.50;2.10;;;;;;;11.83;50.83;95134.09;4972917;28;20943;-73
2023/05/03 04:05:01;;;;;;;5.17;2.17;;;;;;;11.84;50.68;95138.38;4973412;28;20467;-73
2023/05/03 04:07:26;;;;;;;4.40;2.20;;;;;;;11.91;50.63;95137.31;4971867;28;20417;-73
2023/05/03 04:09:52;;;;;;;2.28;1.88;;;;;;;12.06;50.01;95148.38;4972380;28;20776;-73
2023/05/03 04:12:17;;;;;;;4.97;2.10;;;;;;;11.97;49.82;95133.81;4972225;28;20500;-74
2023/05/03 04:14:43;;;;;;;6.00;2.10;;;;;;;11.80;50.70;95145.06;4972692;28;20911;-74
2023/05/03 04:17:08;;;;;;;4.15;2.17;;;;;;;11.75;50.79;95147.53;4972533;28;20417;-74
2023/05/03 04:19:34;;;;;;;4.43;2.17;;;;;;;11.70;51.03;95134.94;4973335;28;20940;-74
2023/05/03 04:21:59;;;;;;;4.83;2.17;;;;;;;11.75;50.91;95148.34;4972260;28;20832;-74
2023/05/03 04:24:26;;;;;;;5.53;1.80;;;;;;;11.52;51.47;95169.09;4972670;28;20508;-74
2023/05/03 04:26:52;;;;;;;3.13;2.10;;;;;;;11.47;51.82;95172.38;4972676;28;20613;-74
2023/05/03 04:29:18;;;;;;;3.67;2.10;;;;;;;11.42;51.94;95169.53;4972305;28;21014;-73
2023/05/03 04:31:44;;;;;;;3.13;2.17;;;;;;;11.42;52.20;95209.06;4972235;28;20500;-73
2023/05/03 04:34:13;;;;;;;2.85;1.92;;;;;;;11.49;52.45;95178.25;4957784;28;20895;-73
2023/05/03 04:36:40;;;;;;;4.90;2.30;;;;;;;11.56;51.87;95186.13;4953016;29;20502;-73
2023/05/03 04:39:06;;;;;;;3.40;2.00;;;;;;;11.45;52.47;95187.56;4951475;28;20995;-73
2023/05/03 04:41:32;;;;;;;6.57;2.23;;;;;;;11.52;52.39;95188.34;4951453;29;20415;-73
2023/05/03 04:43:57;;;;;;;3.87;2.40;;;;;;;11.56;52.20;95205.41;4951696;29;20450;-73
2023/05/03 04:46:23;;;;;;;4.80;2.50;;;;;;;11.67;52.08;95203.94;4951790;29;20423;-73
2023/05/03 04:48:48;;;;;;;3.17;2.20;;;;;;;11.70;51.78;95195.59;4951844;29;21010;-72
2023/05/03 04:51:13;;;;;;;5.60;2.40;;;;;;;11.64;52.53;95210.44;4952304;29;20439;-73
2023/05/03 04:53:39;;;;;;;4.17;1.97;;;;;;;11.67;52.53;95207.41;4952362;28;20497;-73
2023/05/03 04:56:06;;;;;;;3.50;2.17;;;;;;;11.75;51.81;95202.94;4952136;29;20416;-73
2023/05/03 04:58:31;;;;;;;4.75;2.30;;;;;;;11.82;51.91;95217.72;4952606;28;20418;-73
2023/05/03 05:00:57;;;;;;;3.97;2.30;;;;;;;11.84;51.80;95222.78;4961618;28;20413;-73
2023/05/03 05:03:22;;;;;;;4.30;1.95;;;;;;;11.73;52.42;95221.56;4971801;28;20417;-73
2023/05/03 05:05:48;;;;;;;4.30;2.60;;;;;;;11.56;52.94;95212.50;4972003;28;20452;-73
2023/05/03 05:08:13;;;;;;;3.13;2.00;;;;;;;11.52;53.24;95225.28;4971856;28;20418;-73
2023/05/03 05:10:42;;;;;;;3.23;2.23;;;;;;;11.62;53.60;95230.13;4971427;28;20441;-73
2023/05/03 05:13:07;;;;;;;4.97;2.42;;;;;;;11.81;53.58;95239.00;4971474;28;20422;-73
2023/05/03 05:15:33;;;;;;;5.67;2.27;;;;;;;11.64;54.82;95238.63;4971463;28;20425;-73
2023/05/03 05:17:58;;;;;;;3.80;2.50;;;;;;;11.56;56.36;95234.41;4971312;28;20421;-73
2023/05/03 05:20:24;;;;;;;3.90;2.30;;;;;;;11.38;57.58;95238.69;4970533;28;20417;-73
2023/05/03 05:22:50;;;;;;;6.03;2.20;;;;;;;11.39;58.01;95233.22;4972399;28;20498;-73
2023/05/03 05:25:15;;;;;;;5.47;2.33;;;;;;;11.40;57.89;95234.03;4956232;28;20171;-73
2023/05/03 05:27:40;;;;;;;4.23;2.23;;;;;;;11.28;57.72;95239.13;4952650;28;20214;-73
2023/05/03 05:30:06;;;;;;;3.53;2.80;;;;;;;11.26;59.14;95235.88;4952806;28;20175;-73
2023/05/03 05:32:32;;;;;;;3.73;2.10;;;;;;;11.14;57.33;95227.00;4968676;28;20190;-73
2023/05/03 05:34:57;;;;;;;5.53;2.20;;;;;;;11.11;58.26;95241.38;4972122;28;20610;-73
2023/05/03 05:37:24;;;;;;;2.87;2.10;;;;;;;11.03;59.15;95246.03;4957856;28;20187;-74
2023/05/03 05:39:49;;;;;;;2.83;2.40;;;;;;;10.93;58.63;95218.28;4952804;29;20681;-74
2023/05/03 05:42:15;;;;;;;4.47;2.87;;;;;;;11.16;58.43;95256.56;4953739;28;20291;-74
2023/05/03 05:44:40;;;;;;;3.70;2.10;;;;;;;11.15;58.38;95241.78;4954014;28;20186;-74
2023/05/03 05:47:08;;;;;;;3.03;2.00;;;;;;;11.13;58.07;95239.34;4952708;29;20265;-73
2023/05/03 05:49:34;;;;;;;2.47;2.00;;;;;;;11.27;57.63;95258.56;4952308;29;20174;-73
2023/05/03 05:51:59;;;;;;;4.27;2.00;;;;;;;11.30;57.63;95258.19;4952472;28;20234;-74
2023/05/03 05:54:25;;;;;;;3.70;2.37;;;;;;;11.21;57.50;95223.31;4962111;28;20662;-73
2023/05/03 05:56:51;;;;;;;2.37;1.87;;;;;;;11.14;57.63;95230.44;4971950;28;20170;-73
2023/05/03 05:59:16;;;;;;;3.87;3.10;;;;;;;11.32;57.35;95246.44;4971760;28;20256;-74
2023/05/03 06:01:44;;;;;;;4.37;2.10;;;;;;;11.37;57.01;95264.25;4972266;28;20184;-74
2023/05/03 06:04:11;;;;;;;6.60;2.47;;;;;;;11.32;57.97;95245.63;4971950;28;20182;-74
2023/05/03 06:06:40;;;;;;;4.70;2.20;;;;;;;11.22;57.64;95240.75;4972009;28;20845;-74
2023/05/03 06:09:05;;;;;;;4.77;2.07;;;;;;;11.46;57.34;95254.28;4971438;28;20232;-74
2023/05/03 06:11:32;;;;;;;5.90;2.00;;;;;;;11.35;58.04;95243.34;4971879;28;20189;-75
2023/05/03 06:13:58;;;;;;;4.57;2.10;;;;;;;11.36;58.02;95252.06;4959569;28;20206;-75
2023/05/03 06:16:23;;;;;;;2.60;1.90;;;;;;;11.45;57.66;95248.22;4953168;28;20202;-74
2023/05/03 06:18:49;;;;;;;3.23;2.30;;;;;;;11.51;58.21;95246.56;4952347;29;20214;-74
2023/05/03 06:21:15;;;;;;;5.90;2.20;;;;;;;11.51;57.34;95244.75;4952414;29;20255;-74
2023/05/03 06:23:41;;;;;;;4.17;2.23;;;;;;;11.21;58.84;95217.25;4952382;29;20183;-74
2023/05/03 06:26:06;;;;;;;3.63;2.33;;;;;;;11.34;58.63;95246.19;4952520;29;20598;-73
2023/05/03 06:28:32;;;;;;;4.07;2.00;;;;;;;11.40;59.11;95240.13;4952398;29;20166;-74
2023/05/03 06:30:57;;;;;;;4.40;2.90;;;;;;;11.42;59.79;95245.16;4953349;28;20197;-74
2023/05/03 06:33:23;;;;;;;3.90;2.30;;;;;;;11.57;59.31;95235.22;4956063;29;20226;-74
2023/05/03 06:35:48;;;;;;;3.23;2.77;;;;;;;11.79;58.70;95230.50;4956415;29;20183;-74
2023/05/03 06:38:14;;;;;;;3.63;2.37;;;;;;;11.85;58.55;95224.41;4956299;29;20185;-74
2023/05/03 06:40:42;;;;;;;3.87;2.20;;;;;;;11.52;58.10;95204.19;4956199;29;20178;-74
2023/05/03 06:43:07;;;;;;;3.30;2.37;;;;;;;11.66;58.41;95218.97;4956383;28;20175;-74
2023/05/03 06:45:33;;;;;;;4.83;2.33;;;;;;;11.68;57.29;95224.81;4960662;28;20214;-74
2023/05/03 06:47:58;;;;;;;4.83;2.37;;;;;;;11.74;57.80;95217.91;4955608;29;20174;-74
2023/05/03 06:50:25;;;;;;;4.00;2.13;;;;;;;11.72;58.44;95204.94;4953257;29;20568;-74
2023/05/03 06:52:50;;;;;;;4.43;2.40;;;;;;;11.68;58.58;95209.00;4955553;28;20189;-75
2023/05/03 06:55:16;;;;;;;3.37;2.40;;;;;;;11.81;58.17;95202.91;4956017;29;20660;-74
2023/05/03 06:57:42;;;;;;;3.83;2.00;;;;;;;11.91;57.49;95208.53;4955990;29;20179;-73
2023/05/03 07:00:08;;;;;;;11.13;3.13;;;;;;;11.97;59.19;95198.97;4955987;29;20191;-75
2023/05/03 07:02:34;;;;;;;3.40;1.70;;;;;;;11.88;57.03;95182.56;4955751;29;20166;-75
2023/05/03 07:05:00;;;;;;;5.70;2.30;;;;;;;11.81;58.02;95204.72;4955900;29;20242;-75
2023/05/03 07:07:25;;;;;;;3.80;2.23;;;;;;;11.89;57.55;95196.56;4938203;29;20175;-75
2023/05/03 07:09:50;;;;;;;4.17;2.10;;;;;;;12.04;57.18;95207.66;4955747;28;20249;-74
2023/05/03 07:12:16;;;;;;;3.63;2.60;;;;;;;11.74;57.47;95186.25;4959611;28;20197;-75
2023/05/03 07:14:42;;;;;;;3.53;2.10;;;;;;;11.67;58.85;95172.31;4964742;28;20265;-74
2023/05/03 07:17:08;;;;;;;4.17;2.40;;;;;;;11.87;57.86;95194.13;4964641;28;20558;-74
2023/05/03 07:19:34;;;;;;;4.17;2.13;;;;;;;11.92;57.72;95181.13;4960262;28;20161;-73
2023/05/03 07:22:02;;;;;;;3.90;2.27;;;;;;;12.02;57.62;95178.81;4966703;28;20666;-74
2023/05/03 07:24:28;;;;;;;6.33;2.17;;;;;;;12.06;57.79;95192.41;4948329;28;20181;-74
2023/05/03 07:26:53;;;;;;;5.27;2.47;;;;;;;12.03;58.11;95190.19;4959918;28;20232;-74
2023/05/03 07:29:19;;;;;;;3.57;2.83;;;;;;;12.25;57.89;95199.41;4963788;28;20221;-75
2023/05/03 07:31:45;;;;;;;5.00;2.20;;;;;;;12.31;57.62;95211.75;4968301;28;20213;-74
2023/05/03 07:34:10;;;;;;;4.60;2.23;;;;;;;12.47;58.11;95224.44;4960356;28;20310;-74
2023/05/03 07:36:37;;;;;;;4.20;2.20;;;;;;;12.44;57.08;95214.34;4964050;28;20199;-74
2023/05/03 07:39:03;;;;;;;5.17;2.30;;;;;;;12.65;56.73;95221.09;4963630;28;20641;-74
2023/05/03 07:41:29;;;;;;;3.20;2.77;;;;;;;12.70;56.87;95213.34;4953767;29;20560;-76
2023/05/03 07:43:54;;;;;;;7.27;2.67;;;;;;;12.58;57.25;95208.94;4953991;28;20233;-75
2023/05/03 07:46:20;;;;;;;3.10;2.30;;;;;;;12.48;57.63;95180.38;4955489;29;21112;-76
2023/05/03 07:48:45;;;;;;;5.73;2.40;;;;;;;12.48;57.68;95209.41;4952481;29;20205;-75
2023/05/03 07:51:11;;;;;;;3.27;2.10;;;;;;;12.43;58.31;95225.91;4955051;29;20202;-74
2023/05/03 07:53:39;;;;;;;5.33;2.27;;;;;;;12.52;58.67;95215.91;4955273;29;20171;-76
2023/05/03 07:56:06;;;;;;;4.13;2.50;;;;;;;12.75;58.56;95216.13;4954993;29;20178;-76
2023/05/03 07:58:31;;;;;;;7.77;2.30;;;;;;;12.73;58.77;95214.72;4959011;28;20170;-76
2023/05/03 08:00:56;;;;;;;3.47;2.20;;;;;;;12.71;57.87;95212.28;4955654;29;20166;-77
2023/05/03 08:03:22;;;;;;;4.10;2.77;;;;;;;12.70;58.30;95199.31;4956830;28;20679;-76
2023/05/03 08:05:48;;;;;;;2.47;2.13;;;;;;;12.83;57.71;95200.00;4955178;28;20263;-76
2023/05/03 08:08:14;;;;;;;2.60;2.10;;;;;;;13.03;58.06;95217.53;4955272;28;20271;-76
2023/05/03 08:10:39;;;;;;;5.50;2.20;;;;;;;13.17;57.58;95206.66;4954364;28;20616;-75
2023/05/03 08:13:08;;;;;;;6.57;2.80;;;;;;;13.27;56.90;95223.84;4963538;28;20192;-76
2023/05/03 08:15:33;;;;;;;5.80;2.37;;;;;;;13.13;57.83;95209.94;4970543;28;20185;-76
2023/05/03 08:17:59;;;;;;;4.20;2.40;;;;;;;13.28;58.66;95214.91;4957525;28;20171;-76
2023/05/03 08:20:28;;;;;;;9.73;3.00;;;;;;;13.58;57.31;95224.53;4965654;28;20608;-75
2023/05/03 08:22:55;;;;;;;3.73;2.37;;;;;;;13.62;57.30;95219.63;4973559;28;20165;-75
2023/05/03 08:25:22;;;;;;;2.73;2.30;;;;;;;13.60;57.53;95232.25;4973639;28;20658;-76
2023/05/03 08:27:48;;;;;;;3.53;2.87;;;;;;;13.70;56.62;95224.63;4956935;28;20581;-76
2023/05/03 08:30:13;;;;;;;3.83;2.30;;;;;;;13.97;58.40;95211.88;4969404;28;20171;-76
2023/05/03 08:32:39;;;;;;;4.83;2.50;;;;;;;14.18;56.68;95227.28;4958887;28;20272;-76
2023/05/03 08:35:06;;;;;;;3.83;2.60;;;;;;;14.39;55.04;95223.38;4962386;28;20209;-75
2023/05/03 08:37:37;;;;;;;5.93;3.07;;;;;;;14.77;56.40;95220.38;4953999;29;20177;-75
2023/05/03 08:40:05;;;;;;;5.10;2.73;;;;;;;14.91;54.28;95220.97;4954111;29;20663;-75
2023/05/03 08:42:32;;;;;;;5.27;2.90;;;;;;;15.38;54.93;95214.69;4954069;29;20171;-76
2023/05/03 08:44:58;;;;;;;5.47;2.97;;;;;;;15.70;52.74;95212.47;4953574;28;20261;-75
2023/05/03 08:47:23;;;;;;;4.88;2.20;;;;;;;16.03;50.57;95217.13;4953555;29;20258;-75
2023/05/03 08:49:51;;;;;;;3.28;2.38;;;;;;;15.80;50.68;95214.53;4954113;29;20191;-75
2023/05/03 08:52:19;;;;;;;3.67;2.47;;;;;;;15.92;52.29;95222.44;4953886;28;20211;-74
2023/05/03 08:54:44;;;;;;;4.18;2.50;;;;;;;15.90;50.61;95220.06;4953229;28;20186;-74
2023/05/03 08:57:13;;;;;;;5.60;2.50;;;;;;;15.93;51.39;95203.63;4953732;29;20185;-74
2023/05/03 08:59:49;;;;;;;4.32;3.03;;;;;;;16.14;50.34;95220.78;4954015;29;20234;-76
2023/05/03 09:02:15;;;;;;;5.22;2.60;;;;;;;16.09;53.01;95202.09;4953483;29;20250;-75
2023/05/03 09:04:41;;;;;;;2.75;2.38;;;;;;;16.25;50.70;95225.25;4954524;29;20178;-77
2023/05/03 09:07:10;;;;;;;3.60;2.55;;;;;;;16.22;51.01;95225.72;4957125;28;20526;-78
2023/05/03 09:09:35;;;;;;;6.18;2.47;;;;;;;16.02;51.02;95233.28;4957111;28;20200;-77
2023/05/03 09:12:01;;;;;;;7.38;2.75;;;;;;;16.04;51.31;95224.03;4953582;28;20687;-77
2023/05/03 09:14:27;;;;;;;3.53;2.28;;;;;;;15.80;51.36;95207.38;4960001;28;20178;-77
2023/05/03 09:16:52;;;;;;;2.92;2.60;;;;;;;15.99;53.34;95217.84;4968583;28;20174;-77
2023/05/03 09:19:18;;;;;;;8.60;2.72;;;;;;;16.18;51.27;95190.84;4964016;28;20605;-77
2023/05/03 09:21:48;;;;;;;4.32;2.10;;;;;;;16.41;50.29;95183.84;4958618;28;20202;-74
2023/05/03 09:24:19;;;;;;;4.50;2.70;;;;;;;16.54;50.77;95204.78;4953398;28;20175;-75
2023/05/03 09:26:46;;;;;;;3.28;2.72;;;;;;;16.91;51.62;95199.88;4953036;28;20183;-75
2023/05/03 09:29:30;;;;;;;2.63;2.38;;;;;;;16.94;49.00;95205.53;4953922;28;20201;-75
2023/05/03 09:32:00;;;;;;;3.47;2.92;;;;;;;16.87;50.57;95198.72;4946557;29;20277;-76
2023/05/03 09:34:26;;;;;;;3.30;2.55;;;;;;;16.82;49.58;95188.03;4938041;28;20658;-76
2023/05/03 09:36:51;;;;;;;4.03;3.15;;;;;;;16.39;49.64;95191.22;4962912;28;20201;-75
2023/05/03 09:39:18;;;;;;;4.50;2.80;;;;;;;16.27;50.38;95147.97;4953067;29;20185;-76
2023/05/03 09:41:43;;;;;;;6.72;3.10;;;;;;;16.50;51.30;95185.88;4953132;29;20213;-76
2023/05/03 09:44:09;;;;;;;7.75;3.40;;;;;;;16.53;50.94;95181.91;4953129;28;20206;-76
2023/05/03 09:46:36;;;;;;;5.00;2.75;;;;;;;16.42;51.32;95154.38;4955431;28;20170;-76
2023/05/03 09:49:02;;;;;;;5.28;2.65;;;;;;;16.32;50.91;95178.09;4953492;28;20178;-77
2023/05/03 09:51:30;;;;;;;4.30;2.65;;;;;;;16.37;51.59;95169.41;4952543;28;20198;-76
2023/05/03 09:53:57;;;;;;;4.05;2.60;;;;;;;16.30;51.25;95180.19;4952550;29;20177;-75
2023/05/03 09:56:25;;;;;;;4.53;2.78;;;;;;;16.35;52.04;95153.69;4952947;28;20170;-79
2023/05/03 09:58:52;;;;;;;2.95;2.15;;;;;;;16.83;51.48;95166.50;4952431;29;20178;-75
2023/05/03 10:01:19;;;;;;;10.65;3.25;;;;;;;17.25;52.38;95158.09;4955136;28;20174;-74
2023/05/03 10:03:50;;;;;;;6.07;2.92;;;;;;;17.41;54.22;95164.44;4954947;28;20674;-76
2023/05/03 10:06:25;;;;;;;4.15;3.05;;;;;;;17.61;50.09;95162.03;4952821;28;20245;-76
2023/05/03 10:09:13;;;;;;;3.15;2.67;;;;;;;17.64;49.97;95146.38;4952926;29;20178;-76
2023/05/03 10:11:45;;;;;;;3.42;2.80;;;;;;;17.35;50.28;95124.44;4951320;28;20187;-75
2023/05/03 10:14:11;;;;;;;3.63;2.70;;;;;;;17.39;50.29;95148.69;4951449;28;20174;-75
2023/05/03 10:16:40;;;;;;;3.40;2.70;;;;;;;17.33;50.39;95157.66;4951463;28;20592;-76
2023/05/03 10:19:10;;;;;;;6.95;2.80;;;;;;;17.31;51.45;95154.44;4952480;28;20675;-78
2023/05/03 10:21:58;;;;;;;2.22;2.05;;;;;;;17.32;50.79;95156.06;4952297;29;20656;-76
2023/05/03 10:24:24;;;;;;;3.22;2.53;;;;;;;17.34;51.54;95146.78;4937074;28;21619;-76
2023/05/03 10:26:50;;;;;;;2.97;2.40;;;;;;;17.34;51.22;95120.16;4952317;29;20583;-76
2023/05/03 10:29:34;;;;;;;5.15;3.00;;;;;;;17.29;50.79;95122.78;4939406;29;20182;-77
2023/05/03 10:32:04;;;;;;;4.05;2.67;;;;;;;17.37;51.48;95113.56;4952929;28;20755;-76
2023/05/03 10:34:31;;;;;;;3.63;2.40;;;;;;;17.45;50.47;95123.78;4953636;28;20229;-76
2023/05/03 10:37:08;;;;;;;3.38;2.47;;;;;;;17.53;51.34;95107.38;4953777;28;20190;-76
2023/05/03 10:39:34;;;;;;;7.43;3.08;;;;;;;17.64;49.81;95111.78;4953928;28;20177;-77
2023/05/03 10:42:08;;;;;;;2.92;2.70;;;;;;;17.37;51.25;95091.47;4951328;28;20553;-77
2023/05/03 10:44:38;;;;;;;3.60;2.67;;;;;;;17.33;50.71;95099.94;4961568;28;20170;-77
2023/05/03 10:47:13;;;;;;;3.75;2.67;;;;;;;17.49;51.65;95111.56;4948399;28;20182;-77
2023/05/03 10:49:42;;;;;;;3.83;2.50;;;;;;;17.45;51.82;95102.47;4954202;28;20185;-77
2023/05/03 10:52:35;;;;;;;3.92;2.72;;;;;;;17.42;53.04;95105.63;4952968;28;20186;-76
2023/05/03 10:55:21;;;;;;;3.40;2.40;;;;;;;17.42;51.88;95100.31;4949593;29;20174;-76
2023/05/03 10:57:47;;;;;;;5.18;2.95;;;;;;;17.48;51.08;95112.63;4950965;29;20182;-76
2023/05/03 11:00:27;;;;;;;3.40;2.40;;;;;;;17.31;52.25;95106.53;4956872;28;20645;-76
2023/05/03 11:03:11;;;;;;;7.80;2.47;;;;;;;17.36;51.32;95114.59;4945682;29;20177;-77
2023/05/03 11:05:38;;;;;;;6.40;2.65;;;;;;;17.30;51.65;95120.88;4964836;28;20571;-77
2023/05/03 11:08:24;;;;;;;3.00;2.60;;;;;;;17.32;52.57;95119.59;4964225;28;20206;-77
2023/05/03 11:10:58;;;;;;;4.68;2.60;;;;;;;17.28;51.39;95109.72;4957366;28;20190;-77
2023/05/03 11:13:23;;;;;;;4.53;2.30;;;;;;;17.17;51.96;95097.31;4952911;29;20209;-76
2023/05/03 11:15:49;;;;;;;3.38;2.58;;;;;;;17.29;52.00;95098.81;4958014;28;20201;-77
2023/05/03 11:18:14;;;;;;;2.97;2.58;;;;;;;17.43;51.96;95096.59;4957780;28;20587;-76
2023/05/03 11:20:40;;;;;;;5.72;2.85;;;;;;;17.54;51.62;95097.53;4962421;28;20182;-76
2023/05/03 11:23:08;;;;;;;6.45;3.33;;;;;;;17.67;51.49;95094.50;4961375;28;20210;-77
2023/05/03 11:25:34;;;;;;;4.47;2.65;;;;;;;17.63;51.21;95096.88;4957239;28;20185;-76
2023/05/03 11:28:00;;;;;;;6.13;2.67;;;;;;;17.64;53.08;95087.03;4959273;28;20574;-77
2023/05/03 11:30:28;;;;;;;4.07;2.42;;;;;;;17.70;52.32;95080.72;4959286;28;20588;-77
2023/05/03 11:32:53;;;;;;;10.80;2.63;;;;;;;17.76;50.84;95069.03;4957112;28;20226;-77
2023/05/03 11:35:22;;;;;;;3.92;1.98;;;;;;;17.77;50.17;95077.84;4957402;28;20185;-76